Avondale, Colorado
Current Conditions -  °F | °C
As of 5:53 PM on Saturday 25 Oct 2014 (Local Time) from KPUB Reporting Station
Clear Clear  
Wind Chill: 26°   Ceiling: Unl
Heat Index: 26°   Visibility: 10mi
Dew Point: -4°   Wind: 6mph
Humidity: 14%   Direction: 120°ESE
Pressure: 30.02"   Gusts: NA
Location:  38.24°N, 104.35°W
Report Text: KPUB 252353Z 12005KT 10SM CLR 26/M04 A3002 RMK AO2 SLP122 T02561039 10283 20250 56018
Loading
Personal Weather Stations






























Interactive Weather Map
Tropical Storm Tracking
New forecast layout! Learn more

10-Day Weather Forecast

Advertisements
Track Severe Weather on mobile